Portada
METAR-TAF:

METAR-TAF

Aeropuertos :

Aeropuerto Internacional Manuel Piar

Ciudad Guayana, Venezuela

latitud: 08-18N, longitud: 062-44W, altitud: 144 m

Observación

El informe se hizo hace 1 hora y 2 minutos, a las 02:03 UTC
Temperatura
Presión

METAR: SVPR 230203Z AUTO NIL

Hora: 23:05 (03:05 UTC)

Pronóstico

El informe se hizo hace 5 horas y 5 minutos, a las 22:00 UTC
Pronóstico válido del 23 a las 00 UTC al 24 a las 00 UTC
Viento 5 kt del este-noreste
Visibilidad 10 km o más
Nubes dispersas a una altura de 1300 ft
Temporalmente
del 23 a las 00 UTC al 23 a las 04 UTC
Viento 3 kt del noreste
Visibilidad: 5000 m
Cielo cubierto a una altura de 1300 ft, Cumulonimbus.
tormenta, lluvia fuerte,

TAF: SVPR 222200Z 2300/2400 06005KT 9999 SCT013 TX35/2218Z TN23/2307Z TEMPO 2300/2304 05003KT 5000 +TSRA OVC013CB

Observaciones y pronósticos meteorológicos de más de 4000 aeropuertos (mensajes METAR y TAF).

Los puntos amarillos y rojos representan las estaciones disponibles.

Ponga el ratón en el punto deseado para ver el nombre de la estación.

Haga clic para ver las observaciones y los pronósticos meteorológicos.

Para cambiar el mapa : haga clic en los botones verdes con una cruz de color negro para hacer un zoom, en el botón verde con un guión para alejar o en las flechas verdes para mapas adyacentes.


METAR-TAF: